Airfield :
LOGIN :

Register | Disclaimer

   EN    FR    IT 

 










Legend :    VFR   Marginal VFR   IFR   Intensive IFR   Very Intensive IFR
Visi :
Ceiling :
>= 8 km
>= 3000ft
5 to 8 km
1000 to 3000 ft
1500m to 5 km
500 to 1000 ft
800 to 1500m
200 to 500 ft
< 800m
< 200 ft
Symbols :   Thunderstorms  Fog  Heavy snow  Heavy precipitations  Wind > 20 kt
SIGMETs :     Misc.  Thunderstorms  Icing  Turbulence  Mountain Waves  Volcanic Ashes






- Airport Elevation : 37 ft
- IATA code : OLB


LIEO - Olbia Costa Smeralda

CURRENT METAR :
  • 280620Z VRB02KT 9000 SHRA FEW015 BKN020 09/09 Q1007

EXPIRED METARs :
  • 280550Z 19003KT 150V230 9999 -RA FEW010 BKN015 09/08 Q1007
  • 280520Z VRB01KT 9999 SCT020 09/08 Q1007
  • 280450Z 25006KT 9999 SCT020 08/08 Q1007
  • 280420Z VRB01KT 9999 SCT025 08/08 Q1007
  • 280350Z VRB02KT CAVOK 08/08 Q1007
  • 280320Z VRB01KT CAVOK 08/07 Q1007
  • 280250Z 24004KT CAVOK 08/07 Q1007
  • 280220Z VRB02KT CAVOK 08/07 Q1007
  • 280150Z VRB02KT CAVOK 07/07 Q1007

TAF TAF LIEO
Valid from the 28 at 06:00 until the 29 at 06:00 UTC


280500Z 2806/2906 30007KT 7000 BKN020
BECMG 2806/2808 4000 RA BKN012
BECMG 2810/2812 03018KT
TEMPO 2810/2903 03018G30KT TSRA
BECMG 2903/2905 09008KT 8000 NSW
TEMPO 2903/2906 SHRA



MET'MAP, your aeronautical weather chart ! - Copyright ORBIFLY December 2007 - Disclaimer

ORBIFLY MET'MAP TEAM :

Programming & Development : Alexandra Zaïnal
Original concept : Baudouin d'Aumeries
Technical & hardware support : Manuel Goepfert
Assistance : Marc-Olivier Méhu




SOURCES & CREDITS :

   NOAA